Time;durP1;ratioP1;P1;durP2;ratioP2;P2;SDS_P1;SDS_P2;PMS_P1;PMS_P2;Temp;Humidity;BMP_temperature;BMP_pressure;BME280_temperature;BME280_humidity;BME280_pressure;Samples;Min_cycle;Max_cycle;Signal;HPM_P1;HPM_P2
2022/11/03 00:01:06;;;;;;;18.55;5.47;;;11.20;99.90;;;;;;5137441;27;20047;-57
2022/11/03 00:03:32;;;;;;;12.20;4.18;;;11.20;99.90;;;;;;5119123;27;20408;-47
2022/11/03 00:06:03;;;;;;;15.32;3.75;;;11.20;99.90;;;;;;5133518;27;20046;-52
2022/11/03 00:08:29;;;;;;;12.82;3.38;;;11.20;99.90;;;;;;5110744;27;20146;-46
2022/11/03 00:11:08;;;;;;;14.80;3.95;;;11.20;99.90;;;;;;5133296;27;20410;-47
2022/11/03 00:13:35;;;;;;;16.27;3.92;;;11.20;99.90;;;;;;5138126;27;20105;-46
2022/11/03 00:16:01;;;;;;;14.05;3.95;;;11.10;99.90;;;;;;5136648;27;20050;-51
2022/11/03 00:18:26;;;;;;;14.68;3.70;;;11.10;99.90;;;;;;5117767;27;20069;-50
2022/11/03 00:21:03;;;;;;;13.20;3.88;;;11.00;99.90;;;;;;5136649;27;20038;-51
2022/11/03 00:23:32;;;;;;;10.18;3.88;;;11.00;99.90;;;;;;5118285;27;20042;-49
2022/11/03 00:26:08;;;;;;;16.25;4.18;;;11.00;99.90;;;;;;5136854;27;20586;-50
2022/11/03 00:28:35;;;;;;;15.77;4.22;;;10.90;99.90;;;;;;5137280;27;20046;-48
2022/11/03 00:31:04;;;;;;;13.23;4.00;;;10.80;99.90;;;;;;5136321;27;20412;-47
2022/11/03 00:33:31;;;;;;;15.35;3.85;;;10.80;99.90;;;;;;5118639;27;20051;-44
2022/11/03 00:35:58;;;;;;;15.98;3.70;;;10.80;99.90;;;;;;5136826;27;20056;-44
2022/11/03 00:38:24;;;;;;;16.77;3.88;;;10.80;99.90;;;;;;5136686;27;20532;-49
2022/11/03 00:40:59;;;;;;;13.38;4.32;;;10.70;99.90;;;;;;5136093;27;20571;-43
2022/11/03 00:43:26;;;;;;;19.10;3.90;;;10.70;99.90;;;;;;5118379;27;20535;-45
2022/11/03 00:45:52;;;;;;;15.88;4.18;;;10.70;99.90;;;;;;5137008;27;20042;-47
2022/11/03 00:48:34;;;;;;;18.52;3.90;;;10.60;99.90;;;;;;5136550;27;20050;-52
2022/11/03 00:51:01;;;;;;;15.60;3.75;;;10.60;99.90;;;;;;5135828;27;20352;-50
2022/11/03 00:53:27;;;;;;;16.15;3.78;;;10.60;99.90;;;;;;5136734;27;20054;-53
2022/11/03 00:55:53;;;;;;;17.42;4.03;;;10.60;99.90;;;;;;5136584;27;20573;-49
2022/11/03 00:58:18;;;;;;;18.25;4.45;;;10.60;99.90;;;;;;5136670;27;20073;-52
2022/11/03 01:00:44;;;;;;;14.20;3.83;;;10.60;99.90;;;;;;5136517;27;20039;-47
2022/11/03 01:03:09;;;;;;;14.18;3.55;;;10.60;99.90;;;;;;5136820;27;20485;-50
2022/11/03 01:08:24;;;;;;;15.68;3.35;;;10.50;99.90;;;;;;5119127;27;20413;-50
2022/11/03 01:13:34;;;;;;;15.65;4.32;;;10.50;99.90;;;;;;5136551;27;20093;-50
2022/11/03 01:15:59;;;;;;;16.65;4.32;;;10.50;99.90;;;;;;5135928;27;20470;-50
2022/11/03 01:18:25;;;;;;;15.93;3.95;;;10.50;99.90;;;;;;5135568;27;20579;-48
2022/11/03 01:20:55;;;;;;;14.55;4.00;;;10.50;99.90;;;;;;5139348;27;20039;-44
2022/11/03 01:23:22;;;;;;;17.70;3.40;;;10.50;99.90;;;;;;5140633;27;20076;-43
2022/11/03 01:25:47;;;;;;;12.98;2.95;;;10.40;99.90;;;;;;5140782;27;20506;-46
2022/11/03 01:28:13;;;;;;;15.32;3.58;;;10.40;99.90;;;;;;5121362;27;20047;-50
2022/11/03 01:30:38;;;;;;;10.30;3.47;;;10.40;99.90;;;;;;5139718;27;20054;-50
2022/11/03 01:33:04;;;;;;;16.42;3.97;;;10.40;99.90;;;;;;5140427;27;20403;-50
2022/11/03 01:35:30;;;;;;;14.68;2.80;;;10.30;99.90;;;;;;5140454;27;20034;-50
2022/11/03 01:37:55;;;;;;;16.40;4.13;;;10.30;99.90;;;;;;5139269;27;20081;-49
2022/11/03 01:40:22;;;;;;;16.70;3.72;;;10.30;99.90;;;;;;5139270;27;20072;-43
2022/11/03 01:42:47;;;;;;;17.10;3.90;;;10.30;99.90;;;;;;5121069;27;20629;-47
2022/11/03 01:45:13;;;;;;;12.90;3.10;;;10.30;99.90;;;;;;5139352;27;20164;-54
2022/11/03 01:47:42;;;;;;;16.20;3.35;;;10.20;99.90;;;;;;5139321;27;20043;-51
2022/11/03 01:50:14;;;;;;;14.23;4.22;;;10.20;99.90;;;;;;5139574;27;20080;-53
2022/11/03 01:52:42;;;;;;;19.63;3.55;;;10.20;99.90;;;;;;5136054;27;20039;-46
2022/11/03 01:55:31;;;;;;;12.50;3.53;;;10.20;99.90;;;;;;5121652;27;20057;-56
2022/11/03 01:58:07;;;;;;;20.23;3.65;;;10.10;99.90;;;;;;5138745;27;20142;-51
2022/11/03 02:00:33;;;;;;;11.82;3.83;;;10.10;99.90;;;;;;5120385;27;20672;-43
2022/11/03 02:03:00;;;;;;;15.45;4.47;;;10.00;99.90;;;;;;5139838;27;20050;-46
2022/11/03 02:05:27;;;;;;;15.32;3.45;;;10.00;99.90;;;;;;5136031;27;20058;-45
2022/11/03 02:07:56;;;;;;;17.70;3.97;;;10.00;99.90;;;;;;5137063;27;20167;-50
2022/11/03 02:10:23;;;;;;;14.13;3.75;;;9.90;99.90;;;;;;5130509;27;20050;-51
2022/11/03 02:12:49;;;;;;;14.68;3.60;;;9.90;99.90;;;;;;5139091;27;20046;-51
2022/11/03 02:15:17;;;;;;;17.00;3.20;;;9.90;99.90;;;;;;5121130;27;20095;-51
2022/11/03 02:17:45;;;;;;;16.42;4.10;;;9.80;99.90;;;;;;5139358;27;20129;-51
2022/11/03 02:20:30;;;;;;;18.95;3.80;;;9.80;99.90;;;;;;5139377;27;20369;-43
2022/11/03 02:23:16;;;;;;;17.30;5.05;;;9.80;99.90;;;;;;5127916;27;20046;-44
2022/11/03 02:25:46;;;;;;;16.67;4.55;;;9.80;99.90;;;;;;5140193;27;20506;-51
2022/11/03 02:28:18;;;;;;;17.10;3.70;;;9.80;99.90;;;;;;5139083;27;20049;-54
2022/11/03 02:31:07;;;;;;;10.73;3.75;;;9.80;99.90;;;;;;5137720;27;20356;-53
2022/11/03 02:33:47;;;;;;;13.38;4.28;;;9.70;99.90;;;;;;5120479;27;20451;-52
2022/11/03 02:36:19;;;;;;;13.50;3.85;;;9.80;99.90;;;;;;5139467;27;20051;-46
2022/11/03 02:38:52;;;;;;;16.33;3.33;;;9.80;99.90;;;;;;5139588;27;20411;-49
2022/11/03 02:41:20;;;;;;;17.33;4.35;;;9.80;99.90;;;;;;5138437;27;20121;-51
2022/11/03 02:43:47;;;;;;;15.40;4.10;;;9.70;99.90;;;;;;5138825;27;20047;-50
2022/11/03 02:46:15;;;;;;;15.20;3.88;;;9.70;99.90;;;;;;5138642;27;20110;-52
2022/11/03 02:48:41;;;;;;;14.05;3.58;;;9.80;99.90;;;;;;5120933;27;20090;-43
2022/11/03 02:51:07;;;;;;;16.20;3.00;;;9.80;99.90;;;;;;5138170;27;20162;-49
2022/11/03 02:53:45;;;;;;;12.00;3.38;;;9.80;99.90;;;;;;5120592;27;20386;-46
2022/11/03 02:56:18;;;;;;;20.73;3.92;;;9.80;99.90;;;;;;5137649;27;20594;-53
2022/11/03 02:58:53;;;;;;;16.13;4.35;;;9.80;99.90;;;;;;5138540;27;20047;-56
2022/11/03 03:01:26;;;;;;;14.32;3.83;;;9.80;99.90;;;;;;5128168;27;20043;-45
2022/11/03 03:04:02;;;;;;;16.15;3.67;;;9.80;99.90;;;;;;5129866;27;20460;-52
2022/11/03 03:06:41;;;;;;;15.30;4.20;;;9.80;99.90;;;;;;5132260;27;20221;-49
2022/11/03 03:09:11;;;;;;;18.02;4.43;;;9.80;99.90;;;;;;5127416;27;20051;-46
2022/11/03 03:11:40;;;;;;;17.92;4.20;;;9.90;99.90;;;;;;5138009;27;20046;-49
2022/11/03 03:14:13;;;;;;;19.95;4.25;;;9.90;99.90;;;;;;5138445;27;20054;-49
2022/11/03 03:16:59;;;;;;;15.32;3.53;;;9.90;99.90;;;;;;5137962;27;20093;-52
2022/11/03 03:19:33;;;;;;;14.70;4.10;;;10.00;99.90;;;;;;5137796;27;20054;-50
2022/11/03 03:22:09;;;;;;;23.35;4.20;;;10.00;99.90;;;;;;5137287;27;20571;-44
2022/11/03 03:24:48;;;;;;;13.75;4.20;;;10.00;99.90;;;;;;5119774;27;20061;-48
2022/11/03 03:27:16;;;;;;;14.32;3.88;;;10.00;99.90;;;;;;5137248;27;20060;-49
2022/11/03 03:29:48;;;;;;;11.43;4.03;;;10.00;99.90;;;;;;5137449;27;20077;-48
2022/11/03 03:32:17;;;;;;;16.90;4.32;;;10.00;99.90;;;;;;5137537;27;20050;-53
2022/11/03 03:34:46;;;;;;;17.00;4.13;;;10.00;99.90;;;;;;5138332;27;20508;-54
2022/11/03 03:37:14;;;;;;;17.80;4.10;;;10.00;99.90;;;;;;5137200;27;20057;-52
2022/11/03 03:39:44;;;;;;;15.63;4.38;;;10.00;99.90;;;;;;5102074;27;20818;-54
2022/11/03 03:42:13;;;;;;;15.88;3.80;;;10.00;99.90;;;;;;5118804;27;20087;-50
2022/11/03 03:44:40;;;;;;;14.60;4.97;;;10.00;99.90;;;;;;5136864;27;20617;-54
2022/11/03 03:47:13;;;;;;;12.70;3.60;;;10.00;99.90;;;;;;5136802;27;20055;-48
2022/11/03 03:49:39;;;;;;;15.10;5.07;;;10.00;99.90;;;;;;5136813;27;20046;-53
2022/11/03 03:52:08;;;;;;;11.85;3.45;;;10.00;99.90;;;;;;5136540;27;20047;-48
2022/11/03 03:54:34;;;;;;;11.43;3.75;;;10.00;99.90;;;;;;5137734;27;20177;-52
2022/11/03 03:57:02;;;;;;;14.52;3.85;;;10.00;99.90;;;;;;5136419;27;20046;-44
2022/11/03 03:59:28;;;;;;;15.73;4.05;;;10.00;99.90;;;;;;5136173;27;20150;-47
2022/11/03 04:01:54;;;;;;;14.38;3.80;;;10.00;99.90;;;;;;5136989;27;20125;-48
2022/11/03 04:04:19;;;;;;;19.08;4.32;;;10.00;99.90;;;;;;5134136;27;20090;-46
2022/11/03 04:06:45;;;;;;;15.32;3.60;;;10.00;99.90;;;;;;5135417;27;20051;-51
2022/11/03 04:09:11;;;;;;;13.32;3.60;;;10.00;99.90;;;;;;5126311;27;20075;-50
2022/11/03 04:22:47;;;;;;;15.57;3.90;;;10.10;99.90;;;;;;5125898;27;20057;-43
2022/11/03 04:25:13;;;;;;;17.83;4.45;;;10.00;99.90;;;;;;5137746;27;20054;-48
2022/11/03 04:27:43;;;;;;;17.98;4.55;;;10.10;99.90;;;;;;5136887;27;20055;-49
2022/11/03 04:30:09;;;;;;;13.07;3.72;;;10.00;99.90;;;;;;5136125;27;20395;-53
2022/11/03 04:32:35;;;;;;;16.95;4.28;;;10.00;99.90;;;;;;5137644;27;20053;-51
2022/11/03 04:35:06;;;;;;;19.00;4.13;;;10.00;99.90;;;;;;5136891;27;20420;-47
2022/11/03 04:37:31;;;;;;;18.55;4.15;;;9.90;99.90;;;;;;5118892;27;20500;-51
2022/11/03 04:40:00;;;;;;;16.58;4.07;;;9.90;99.90;;;;;;5136100;27;20058;-47
2022/11/03 04:42:29;;;;;;;15.70;4.30;;;9.90;99.90;;;;;;5137007;27;20042;-47
2022/11/03 04:44:57;;;;;;;14.13;4.45;;;9.90;99.90;;;;;;5136814;27;20046;-48
2022/11/03 04:47:25;;;;;;;12.80;3.55;;;9.90;99.90;;;;;;5136662;27;20038;-43
2022/11/03 04:49:50;;;;;;;13.90;3.75;;;9.90;99.90;;;;;;5117296;27;20034;-48
2022/11/03 04:52:20;;;;;;;14.95;3.88;;;9.90;99.90;;;;;;5137249;27;20047;-53
2022/11/03 04:54:48;;;;;;;17.02;5.10;;;9.90;99.90;;;;;;5140543;27;20121;-54
2022/11/03 04:57:16;;;;;;;17.05;3.88;;;9.90;99.90;;;;;;5142760;27;20094;-50
2022/11/03 04:59:51;;;;;;;15.70;4.55;;;9.90;99.90;;;;;;5143000;27;20467;-53
2022/11/03 05:02:19;;;;;;;12.98;3.67;;;9.90;99.90;;;;;;5126191;27;20043;-47
2022/11/03 05:04:45;;;;;;;14.27;4.45;;;10.00;99.90;;;;;;5120284;27;20178;-51
2022/11/03 05:07:28;;;;;;;16.17;4.32;;;10.00;99.90;;;;;;5140175;27;20393;-48
2022/11/03 05:09:54;;;;;;;15.85;4.15;;;10.00;99.90;;;;;;5131413;27;20042;-49
2022/11/03 05:12:20;;;;;;;17.30;5.03;;;10.00;99.90;;;;;;5124518;27;20066;-49
2022/11/03 05:14:46;;;;;;;14.35;3.65;;;10.00;99.90;;;;;;5143847;27;20196;-51
2022/11/03 05:17:23;;;;;;;14.90;3.60;;;10.00;99.90;;;;;;5106940;27;20078;-52
2022/11/03 05:19:54;;;;;;;13.43;3.95;;;9.90;99.90;;;;;;5142627;27;20472;-46
2022/11/03 05:22:21;;;;;;;16.50;5.28;;;9.90;99.90;;;;;;5123780;27;20042;-48
2022/11/03 05:24:54;;;;;;;17.45;4.78;;;9.90;99.90;;;;;;5142912;27;20512;-54
2022/11/03 05:27:21;;;;;;;17.48;4.93;;;9.90;99.90;;;;;;5123635;27;20061;-50
2022/11/03 05:29:48;;;;;;;16.13;4.35;;;9.80;99.90;;;;;;5141846;27;20725;-53
2022/11/03 05:32:23;;;;;;;13.68;3.60;;;9.80;99.90;;;;;;5142520;27;20054;-45
2022/11/03 05:34:51;;;;;;;16.42;4.03;;;9.80;99.90;;;;;;5124646;27;20050;-52
2022/11/03 05:37:32;;;;;;;13.77;4.00;;;9.80;99.90;;;;;;5142882;27;20046;-55
2022/11/03 05:40:13;;;;;;;11.05;3.47;;;9.80;99.90;;;;;;5123970;27;20517;-52
2022/11/03 05:42:41;;;;;;;16.20;4.95;;;9.80;99.90;;;;;;5143357;27;20056;-44
2022/11/03 05:45:31;;;;;;;14.00;3.90;;;9.80;99.90;;;;;;5143013;27;20122;-50
2022/11/03 05:47:59;;;;;;;18.13;3.80;;;9.80;99.90;;;;;;5138079;27;20084;-51
2022/11/03 05:50:27;;;;;;;12.57;3.05;;;9.80;99.90;;;;;;5142257;27;20050;-54
2022/11/03 05:53:10;;;;;;;14.73;4.28;;;9.90;99.90;;;;;;5142747;27;20535;-48
2022/11/03 05:55:36;;;;;;;17.38;3.88;;;9.90;99.90;;;;;;5142500;27;20419;-49
2022/11/03 05:58:22;;;;;;;14.13;4.38;;;9.90;99.90;;;;;;5142252;27;20369;-51
2022/11/03 06:00:48;;;;;;;14.40;4.28;;;9.90;99.90;;;;;;5142060;27;20050;-50
2022/11/03 06:03:22;;;;;;;16.05;4.07;;;9.90;99.90;;;;;;5142910;27;20039;-51
2022/11/03 06:05:47;;;;;;;15.73;3.47;;;9.90;99.90;;;;;;5117348;27;20865;-52
2022/11/03 06:08:26;;;;;;;13.63;3.90;;;9.90;99.90;;;;;;5134531;27;20043;-50
2022/11/03 06:10:57;;;;;;;12.52;3.58;;;9.90;99.90;;;;;;5134831;27;20224;-50
2022/11/03 06:13:33;;;;;;;16.33;3.20;;;9.90;99.90;;;;;;5139655;27;20085;-50
2022/11/03 06:16:30;;;;;;;13.50;4.00;;;9.90;99.90;;;;;;5120502;27;20198;-45
2022/11/03 06:18:56;;;;;;;17.17;5.35;;;9.90;99.90;;;;;;5118310;27;20079;-44
2022/11/03 06:21:24;;;;;;;12.43;3.95;;;9.90;99.90;;;;;;5100158;27;20464;-44
2022/11/03 06:23:51;;;;;;;14.52;4.68;;;9.90;99.90;;;;;;5121613;27;20420;-47
2022/11/03 06:26:20;;;;;;;12.00;3.55;;;9.90;99.90;;;;;;5138666;27;20230;-53
2022/11/03 06:28:47;;;;;;;15.90;4.03;;;9.90;99.90;;;;;;5139680;27;20042;-55
2022/11/03 06:31:22;;;;;;;16.55;5.00;;;9.90;99.90;;;;;;5139060;27;20161;-47
2022/11/03 06:33:49;;;;;;;11.52;3.58;;;9.90;99.90;;;;;;5120176;27;20047;-54
2022/11/03 06:36:18;;;;;;;14.50;3.75;;;9.90;99.90;;;;;;5136065;27;20446;-45
2022/11/03 06:38:56;;;;;;;12.48;3.80;;;9.90;99.90;;;;;;5120565;27;20403;-45
2022/11/03 06:41:25;;;;;;;15.32;4.00;;;9.90;99.90;;;;;;5137357;27;20377;-52
2022/11/03 06:43:51;;;;;;;13.35;3.38;;;9.90;99.90;;;;;;5138803;27;20108;-43
2022/11/03 06:46:25;;;;;;;13.68;3.70;;;9.90;99.90;;;;;;5143949;27;20054;-52
2022/11/03 06:48:53;;;;;;;12.30;3.65;;;9.90;99.90;;;;;;5138963;27;20166;-43
2022/11/03 06:51:22;;;;;;;11.75;3.55;;;9.90;99.90;;;;;;5139204;27;20054;-52
2022/11/03 06:53:50;;;;;;;16.92;4.70;;;10.00;99.90;;;;;;5138829;27;20850;-56
2022/11/03 06:56:20;;;;;;;13.32;3.65;;;10.00;99.90;;;;;;5138351;27;20046;-48
2022/11/03 06:58:47;;;;;;;17.85;4.75;;;10.00;99.90;;;;;;5120893;27;20425;-46
2022/11/03 07:01:44;;;;;;;14.60;3.88;;;10.10;99.90;;;;;;5119506;27;20046;-53
2022/11/03 07:04:21;;;;;;;14.73;4.68;;;10.10;99.90;;;;;;5016871;28;20065;-45
2022/11/03 07:06:47;;;;;;;11.70;4.78;;;10.20;99.90;;;;;;5016560;28;20530;-50
2022/11/03 07:09:19;;;;;;;9.45;3.50;;;10.20;99.90;;;;;;5017536;28;20067;-54
2022/11/03 07:12:13;;;;;;;14.10;3.83;;;10.30;99.90;;;;;;5034113;28;20263;-51
2022/11/03 07:14:39;;;;;;;12.85;3.85;;;10.30;99.90;;;;;;5018072;28;20056;-53
2022/11/03 07:17:13;;;;;;;14.73;3.47;;;10.30;99.90;;;;;;5032899;28;20087;-49
2022/11/03 07:19:42;;;;;;;12.75;4.00;;;10.40;99.90;;;;;;5032880;28;20049;-55
2022/11/03 07:22:20;;;;;;;12.25;3.22;;;10.40;99.90;;;;;;5032719;28;21098;-53
2022/11/03 07:24:49;;;;;;;14.85;3.60;;;10.40;99.90;;;;;;5033668;28;20188;-49
2022/11/03 07:27:30;;;;;;;12.02;4.30;;;10.50;99.90;;;;;;5032848;28;20064;-50
2022/11/03 07:30:19;;;;;;;12.95;3.55;;;10.50;99.90;;;;;;5032159;28;20072;-51
2022/11/03 07:32:45;;;;;;;15.43;4.13;;;10.50;99.90;;;;;;5033259;28;20355;-50
2022/11/03 07:35:17;;;;;;;10.30;3.47;;;10.50;99.90;;;;;;5032363;28;20532;-44
2022/11/03 07:37:44;;;;;;;9.45;3.78;;;10.50;99.90;;;;;;5015331;28;20081;-45
2022/11/03 07:40:17;;;;;;;13.38;3.88;;;10.60;99.90;;;;;;5064097;27;20047;-48
2022/11/03 07:42:42;;;;;;;15.77;4.07;;;10.60;99.90;;;;;;5137295;27;20054;-45
2022/11/03 07:45:40;;;;;;;9.50;3.15;;;10.60;99.90;;;;;;5136975;27;20047;-54
2022/11/03 07:48:32;;;;;;;15.23;3.67;;;10.60;99.90;;;;;;5115349;27;21039;-43
2022/11/03 07:51:28;;;;;;;9.15;3.45;;;10.60;99.90;;;;;;5124050;27;20069;-52
2022/11/03 07:54:02;;;;;;;16.13;3.65;;;10.70;99.90;;;;;;5136719;27;20059;-52
2022/11/03 07:56:33;;;;;;;15.02;4.03;;;10.70;99.90;;;;;;5135822;27;20042;-53
2022/11/03 07:59:04;;;;;;;13.40;3.58;;;10.80;99.90;;;;;;5134546;27;20465;-56
2022/11/03 08:01:36;;;;;;;12.45;4.45;;;10.80;99.90;;;;;;5127032;27;20035;-51
2022/11/03 08:04:05;;;;;;;12.32;3.78;;;10.90;99.90;;;;;;5125513;27;20043;-47
2022/11/03 08:06:31;;;;;;;10.90;3.75;;;10.90;99.90;;;;;;5117265;27;20054;-44
2022/11/03 08:08:57;;;;;;;13.23;4.13;;;10.90;99.90;;;;;;5115379;27;20054;-50
2022/11/03 08:11:23;;;;;;;9.95;3.08;;;11.00;99.90;;;;;;5135994;27;20514;-47
2022/11/03 08:13:52;;;;;;;13.63;3.72;;;11.10;99.90;;;;;;5099128;27;20081;-46
2022/11/03 08:16:19;;;;;;;16.58;4.13;;;11.10;99.90;;;;;;5136140;27;20101;-47
2022/11/03 08:18:45;;;;;;;11.68;3.97;;;11.20;99.90;;;;;;5117832;27;20429;-50
2022/11/03 08:21:11;;;;;;;15.70;4.18;;;11.30;99.90;;;;;;5136387;27;20035;-45
2022/11/03 08:23:37;;;;;;;12.70;4.25;;;11.30;99.90;;;;;;5136808;27;20058;-52
2022/11/03 08:26:03;;;;;;;14.93;3.65;;;11.40;99.90;;;;;;5137046;27;20279;-46
2022/11/03 08:28:30;;;;;;;11.73;3.88;;;11.40;99.90;;;;;;5136273;27;20470;-49
2022/11/03 08:31:00;;;;;;;12.60;3.95;;;11.50;99.90;;;;;;5125822;27;20051;-45
2022/11/03 08:33:27;;;;;;;16.77;4.05;;;11.50;99.90;;;;;;5133369;27;20097;-53
2022/11/03 08:35:53;;;;;;;12.85;4.63;;;11.50;99.90;;;;;;5127199;27;20042;-54
2022/11/03 08:38:18;;;;;;;12.02;3.85;;;11.50;99.90;;;;;;5117154;27;20418;-52
2022/11/03 08:40:44;;;;;;;14.70;3.90;;;11.50;99.90;;;;;;5098048;27;20046;-50
2022/11/03 08:43:10;;;;;;;16.85;3.85;;;11.50;99.90;;;;;;5135135;27;20054;-52
2022/11/03 08:45:36;;;;;;;10.80;3.90;;;11.50;99.90;;;;;;5136073;27;20103;-49
2022/11/03 08:48:02;;;;;;;13.88;4.05;;;11.50;99.90;;;;;;5134958;27;20115;-51
2022/11/03 08:50:27;;;;;;;11.05;3.42;;;11.60;99.90;;;;;;5125669;27;20683;-51
2022/11/03 08:52:53;;;;;;;11.43;3.53;;;11.60;99.90;;;;;;5113675;27;20350;-52
2022/11/03 08:55:19;;;;;;;13.55;4.55;;;11.60;99.90;;;;;;5125513;27;20051;-51
2022/11/03 08:57:46;;;;;;;15.68;4.25;;;11.60;99.90;;;;;;5135676;27;20131;-54
2022/11/03 09:00:12;;;;;;;14.85;3.72;;;11.70;99.90;;;;;;5125367;27;20169;-48
2022/11/03 09:02:38;;;;;;;10.95;3.30;;;11.70;99.90;;;;;;5127224;27;20632;-55
2022/11/03 09:05:06;;;;;;;14.70;3.83;;;11.80;99.90;;;;;;5127265;27;20046;-54
2022/11/03 09:07:32;;;;;;;12.73;3.88;;;11.80;99.90;;;;;;5129404;27;20034;-52
2022/11/03 09:09:57;;;;;;;9.80;3.70;;;11.90;99.90;;;;;;5133201;27;20043;-49
2022/11/03 09:12:23;;;;;;;12.05;3.50;;;11.90;99.90;;;;;;5133159;27;20095;-53
2022/11/03 09:14:49;;;;;;;13.55;3.95;;;12.00;99.90;;;;;;5121057;27;20403;-50
2022/11/03 09:17:14;;;;;;;12.68;3.75;;;12.00;99.90;;;;;;5132434;27;20081;-49
2022/11/03 09:19:40;;;;;;;11.52;4.00;;;12.00;99.90;;;;;;5134475;27;20460;-53
2022/11/03 09:22:06;;;;;;;14.50;3.30;;;12.00;99.90;;;;;;5135079;27;20081;-50
2022/11/03 09:24:31;;;;;;;12.90;4.63;;;12.10;99.90;;;;;;5135285;27;20580;-45
2022/11/03 09:26:57;;;;;;;13.25;4.25;;;12.10;99.90;;;;;;5135149;27;20055;-50
2022/11/03 09:29:22;;;;;;;16.52;4.30;;;12.20;99.90;;;;;;5135620;27;20138;-46
2022/11/03 09:31:48;;;;;;;13.13;4.32;;;12.20;99.90;;;;;;5135353;27;20493;-48
2022/11/03 09:34:14;;;;;;;10.77;3.97;;;12.20;99.90;;;;;;5135276;27;20495;-52
2022/11/03 09:36:39;;;;;;;18.75;4.82;;;12.30;99.90;;;;;;5134312;27;20321;-47
2022/11/03 09:39:05;;;;;;;11.63;3.85;;;12.30;99.90;;;;;;5135687;27;20049;-57
2022/11/03 09:41:31;;;;;;;14.70;3.80;;;12.30;99.90;;;;;;5138725;27;20071;-50
2022/11/03 09:43:58;;;;;;;12.93;4.10;;;12.40;99.90;;;;;;5139111;27;20103;-49
2022/11/03 09:46:24;;;;;;;13.43;3.67;;;12.40;99.90;;;;;;5138584;27;20886;-53
2022/11/03 09:48:50;;;;;;;12.57;4.28;;;12.50;99.90;;;;;;5104404;27;20046;-50
2022/11/03 09:51:21;;;;;;;10.27;3.83;;;12.50;99.90;;;;;;5139265;27;20099;-46
2022/11/03 09:53:47;;;;;;;12.10;3.50;;;12.50;99.90;;;;;;5138742;27;20058;-51
2022/11/03 09:56:14;;;;;;;13.30;3.75;;;12.60;99.90;;;;;;5139153;27;20039;-58
2022/11/03 09:58:40;;;;;;;14.60;4.07;;;12.60;99.90;;;;;;5139402;27;20719;-53
2022/11/03 10:01:09;;;;;;;14.38;3.53;;;12.70;99.90;;;;;;5139785;27;20081;-52
2022/11/03 10:03:35;;;;;;;11.02;3.90;;;12.70;99.90;;;;;;5139435;27;20125;-48
2022/11/03 10:06:01;;;;;;;11.52;3.75;;;12.70;99.90;;;;;;5138853;27;20051;-48
2022/11/03 10:08:30;;;;;;;14.55;3.75;;;12.70;99.90;;;;;;5119411;27;20527;-49
2022/11/03 10:10:56;;;;;;;13.13;3.70;;;12.70;99.90;;;;;;5120205;27;20233;-54
2022/11/03 10:13:30;;;;;;;11.45;3.58;;;12.70;99.90;;;;;;5139253;27;20522;-55
2022/11/03 10:15:57;;;;;;;13.25;3.67;;;12.80;99.90;;;;;;5139187;27;20069;-54
2022/11/03 10:18:23;;;;;;;14.10;3.50;;;12.80;99.90;;;;;;5120217;27;20142;-49
2022/11/03 10:20:49;;;;;;;17.45;3.88;;;12.80;99.90;;;;;;5120410;27;20050;-53
2022/11/03 10:23:14;;;;;;;10.20;3.15;;;12.80;99.90;;;;;;5138972;27;20458;-47
2022/11/03 10:25:42;;;;;;;13.70;3.50;;;12.90;99.90;;;;;;5138202;27;20046;-47
2022/11/03 10:28:22;;;;;;;11.43;3.80;;;12.90;99.90;;;;;;5119340;27;20082;-55
2022/11/03 10:30:54;;;;;;;13.13;3.80;;;12.90;99.90;;;;;;5138812;27;20053;-53
2022/11/03 10:33:37;;;;;;;11.32;4.20;;;13.00;99.90;;;;;;5138887;27;20046;-51
2022/11/03 10:36:04;;;;;;;;;;;13.00;99.90;;;;;;5120389;27;20042;-54
2022/11/03 10:38:31;;;;;;;9.60;3.28;;;13.10;99.90;;;;;;5138515;27;19930;-51
2022/11/03 10:41:13;;;;;;;11.82;3.20;;;13.10;99.90;;;;;;5139352;27;20051;-52
2022/11/03 10:43:41;;;;;;;11.75;3.58;;;13.20;99.90;;;;;;5135603;27;20039;-52
2022/11/03 10:46:23;;;;;;;14.32;3.47;;;13.30;99.90;;;;;;5136951;27;20061;-52
2022/11/03 10:49:18;;;;;;;13.48;4.18;;;13.30;99.90;;;;;;5139043;27;20047;-49
2022/11/03 10:51:47;;;;;;;12.90;3.92;;;13.30;99.90;;;;;;5027117;28;20079;-50
2022/11/03 10:54:18;;;;;;;12.05;3.45;;;13.30;99.90;;;;;;5038545;28;20088;-48
2022/11/03 10:56:45;;;;;;;14.52;4.40;;;13.40;99.90;;;;;;5033341;28;20065;-49
2022/11/03 10:59:20;;;;;;;12.02;3.92;;;13.40;99.90;;;;;;5033395;28;20075;-50
2022/11/03 11:01:46;;;;;;;13.80;4.50;;;13.40;99.90;;;;;;5034111;28;20061;-51
2022/11/03 11:04:19;;;;;;;12.93;4.00;;;13.40;99.90;;;;;;5048430;28;20063;-53
2022/11/03 11:06:45;;;;;;;;;;;13.40;99.90;;;;;;5037254;28;20044;-51
2022/11/03 11:09:14;;;;;;;11.35;4.30;;;13.40;99.90;;;;;;5020993;28;19931;-47
2022/11/03 11:11:58;;;;;;;12.75;4.30;;;13.40;99.90;;;;;;5008017;28;20572;-53
2022/11/03 11:14:29;;;;;;;12.15;3.55;;;13.50;99.90;;;;;;5046629;28;20079;-52
2022/11/03 11:16:57;;;;;;;12.98;3.63;;;13.50;99.90;;;;;;5016775;28;20080;-52
2022/11/03 11:19:25;;;;;;;11.57;3.63;;;13.60;99.90;;;;;;5034677;28;20858;-44
2022/11/03 11:21:53;;;;;;;10.57;3.53;;;13.70;99.90;;;;;;5033901;28;20065;-45
2022/11/03 11:24:41;;;;;;;12.32;4.15;;;13.80;99.90;;;;;;5033437;28;20561;-49
2022/11/03 11:27:26;;;;;;;8.77;3.03;;;13.80;99.90;;;;;;5023179;27;20730;-54
2022/11/03 11:29:51;;;;;;;15.27;6.60;;;13.80;99.90;;;;;;5138437;27;20130;-47
2022/11/03 11:32:35;;;;;;;14.20;5.32;;;13.80;99.90;;;;;;5103835;27;20740;-55
2022/11/03 11:35:01;;;;;;;13.38;7.00;;;13.80;99.90;;;;;;5137178;27;20051;-48
2022/11/03 11:37:27;;;;;;;13.65;5.72;;;13.70;99.90;;;;;;5119080;27;20050;-54
2022/11/03 11:39:52;;;;;;;14.10;5.65;;;13.70;99.90;;;;;;5137901;27;20405;-53
2022/11/03 11:42:19;;;;;;;13.00;4.05;;;13.70;99.90;;;;;;5138451;27;20443;-53
2022/11/03 11:44:52;;;;;;;11.82;3.80;;;13.70;99.90;;;;;;5137080;27;20046;-51
2022/11/03 11:47:31;;;;;;;11.55;3.40;;;13.70;99.90;;;;;;5137659;27;20225;-52
2022/11/03 11:50:05;;;;;;;9.25;3.83;;;13.80;99.90;;;;;;5136546;27;20182;-51
2022/11/03 11:52:43;;;;;;;11.20;3.17;;;13.80;99.90;;;;;;5137203;27;20049;-44
2022/11/03 11:55:51;;;;;;;8.05;3.55;;;13.80;99.90;;;;;;5133084;27;20510;-56
2022/11/03 11:58:19;;;;;;;11.57;3.60;;;13.80;99.90;;;;;;5030671;28;20045;-54
2022/11/03 12:00:55;;;;;;;16.50;4.88;;;13.80;99.90;;;;;;5015922;28;20083;-50
2022/11/03 12:03:32;;;;;;;11.38;4.45;;;13.90;99.90;;;;;;5014731;28;20863;-44
2022/11/03 12:05:58;;;;;;;9.05;3.22;;;13.80;99.90;;;;;;5014155;28;20097;-56
2022/11/03 12:08:29;;;;;;;11.40;3.53;;;13.90;99.90;;;;;;5031758;28;20472;-50
2022/11/03 12:11:00;;;;;;;9.07;3.17;;;13.90;99.90;;;;;;5031741;28;20113;-50
2022/11/03 12:13:42;;;;;;;11.88;3.35;;;13.80;99.90;;;;;;5031876;28;20049;-47
2022/11/03 12:16:08;;;;;;;16.50;3.65;;;13.90;99.90;;;;;;4996858;28;20803;-48
2022/11/03 12:18:42;;;;;;;8.75;3.08;;;13.80;99.90;;;;;;5013725;28;20059;-52
2022/11/03 12:21:31;;;;;;;11.20;3.53;;;13.90;99.90;;;;;;5032291;28;20632;-50
2022/11/03 12:23:56;;;;;;;9.02;2.50;;;13.80;99.90;;;;;;5032235;28;20155;-45
2022/11/03 12:26:28;;;;;;;7.93;2.75;;;13.90;99.90;;;;;;5032377;28;20387;-50
2022/11/03 12:28:54;;;;;;;7.38;2.95;;;13.90;99.90;;;;;;5032826;28;20056;-52
2022/11/03 12:31:20;;;;;;;9.55;3.28;;;13.90;99.90;;;;;;5033030;28;20045;-49
2022/11/03 12:33:45;;;;;;;8.32;3.13;;;13.90;99.90;;;;;;5073469;27;20383;-50
2022/11/03 12:36:11;;;;;;;10.40;3.63;;;13.90;99.90;;;;;;5135425;27;20039;-47
2022/11/03 12:38:36;;;;;;;9.55;3.42;;;13.90;99.90;;;;;;5136813;27;20094;-47
2022/11/03 12:41:20;;;;;;;10.30;3.47;;;13.90;99.90;;;;;;5136747;27;20095;-48
2022/11/03 12:43:48;;;;;;;9.65;3.65;;;13.90;99.90;;;;;;5136649;27;20046;-48
2022/11/03 12:46:18;;;;;;;10.52;4.50;;;14.00;99.90;;;;;;5117258;27;20575;-50
2022/11/03 12:48:46;;;;;;;10.05;4.07;;;14.00;99.90;;;;;;5137433;27;20050;-48
2022/11/03 12:51:23;;;;;;;9.35;3.22;;;14.00;99.90;;;;;;5118644;27;20093;-47
2022/11/03 12:53:49;;;;;;;9.63;3.55;;;14.10;99.90;;;;;;5100379;27;20462;-48
2022/11/03 12:56:16;;;;;;;9.38;2.88;;;14.10;99.90;;;;;;5135372;27;20058;-52
2022/11/03 12:58:41;;;;;;;9.15;2.70;;;14.10;99.90;;;;;;5135867;27;20440;-52
2022/11/03 13:01:08;;;;;;;8.40;3.03;;;14.10;99.90;;;;;;5117332;27;20521;-48
2022/11/03 13:03:34;;;;;;;12.77;3.05;;;14.10;99.90;;;;;;5135916;27;20046;-54
2022/11/03 13:06:03;;;;;;;6.80;2.70;;;14.10;99.90;;;;;;5135591;27;20046;-51
2022/11/03 13:08:32;;;;;;;9.27;2.70;;;14.10;99.90;;;;;;5136288;27;20082;-48
2022/11/03 13:10:58;;;;;;;6.75;3.50;;;14.10;99.90;;;;;;5136358;27;20099;-52
2022/11/03 13:13:24;;;;;;;11.02;2.72;;;14.00;99.90;;;;;;5135149;27;20613;-52